createdAt,value
2018-04-17T00:00:43.759Z,75.37
2018-04-17T00:03:13.344Z,75.14
2018-04-17T00:05:42.926Z,75.24
2018-04-17T00:08:12.558Z,75.54
2018-04-17T00:10:42.134Z,75.96
2018-04-17T00:13:11.700Z,75.89
2018-04-17T00:15:41.070Z,75.91
2018-04-17T00:18:11.045Z,76.13
2018-04-17T00:20:40.619Z,76.48
2018-04-17T00:23:10.196Z,76.16
2018-04-17T00:25:40.186Z,76.88
2018-04-17T00:28:09.763Z,77.79
2018-04-17T00:30:39.347Z,78.57
2018-04-17T00:33:08.929Z,79.26
2018-04-17T00:35:38.703Z,79.56
2018-04-17T00:38:08.282Z,79.67
2018-04-17T00:40:37.863Z,80.06
2018-04-17T00:43:07.843Z,80.56
2018-04-17T00:45:37.453Z,81.28
2018-04-17T00:48:07.032Z,81.84
2018-04-17T00:50:36.610Z,82.08
2018-04-17T00:53:22.805Z,82.14
2018-04-17T00:55:52.779Z,82.21
2018-04-17T00:58:22.381Z,82.51
2018-04-17T01:00:51.709Z,82.07
2018-04-17T01:03:21.285Z,82.10
2018-04-17T01:05:50.863Z,81.43
2018-04-17T01:08:20.437Z,81.35
2018-04-17T01:10:50.417Z,79.52
2018-04-17T01:13:20.004Z,80.30
2018-04-17T01:15:49.608Z,80.73
2018-04-17T01:18:19.195Z,80.75
2018-04-17T01:20:48.773Z,80.60
2018-04-17T01:23:18.353Z,80.27
2018-04-17T01:25:47.937Z,79.99
2018-04-17T01:28:17.515Z,79.03
2018-04-17T01:30:47.511Z,78.72
2018-04-17T01:33:17.091Z,78.55
2018-04-17T01:35:46.682Z,79.30
2018-04-17T01:38:16.892Z,79.33
2018-04-17T01:40:46.478Z,80.55
2018-04-17T01:43:16.455Z,81.07
2018-04-17T01:45:46.052Z,81.21
2018-04-17T01:48:15.640Z,80.50
2018-04-17T01:50:45.250Z,78.95
2018-04-17T01:53:14.835Z,79.41
2018-04-17T01:55:44.418Z,80.05
2018-04-17T01:58:14.406Z,80.72
2018-04-17T02:00:43.991Z,81.04
2018-04-17T02:03:13.580Z,80.78
2018-04-17T02:05:42.826Z,80.72
2018-04-17T02:08:12.411Z,79.85
2018-04-17T02:10:41.997Z,79.71
2018-04-17T02:13:11.588Z,79.07
2018-04-17T02:15:41.555Z,78.70
2018-04-17T02:18:11.142Z,78.25
2018-04-17T02:20:40.481Z,78.47
2018-04-17T02:23:10.057Z,78.28
2018-04-17T02:25:39.638Z,78.26
2018-04-17T02:28:09.216Z,78.00
2018-04-17T02:30:38.798Z,77.69
2018-04-17T02:33:08.386Z,77.34
2018-04-17T02:35:37.973Z,77.46
2018-04-17T02:38:07.549Z,77.29
2018-04-17T02:40:37.130Z,77.66
2018-04-17T02:43:06.714Z,77.73
2018-04-17T02:45:36.309Z,77.71
2018-04-17T02:48:05.896Z,77.93
2018-04-17T02:50:35.655Z,78.20
2018-04-17T02:53:05.254Z,78.15
2018-04-17T02:55:34.832Z,78.42
2018-04-17T02:58:04.411Z,78.31
2018-04-17T03:00:33.994Z,78.41
2018-04-17T03:03:03.579Z,78.69
2018-04-17T03:05:33.186Z,79.02
2018-04-17T03:08:02.765Z,79.49
2018-04-17T03:10:32.352Z,80.08
2018-04-17T03:13:01.934Z,80.20
2018-04-17T03:15:31.526Z,80.87
2018-04-17T03:18:01.158Z,80.96
2018-04-17T03:20:31.154Z,81.33
2018-04-17T03:23:00.744Z,81.33
2018-04-17T03:25:30.330Z,81.22
2018-04-17T03:27:59.683Z,81.48
2018-04-17T03:30:29.033Z,81.38
2018-04-17T03:32:58.395Z,81.31
2018-04-17T03:35:27.986Z,81.66
2018-04-17T03:37:57.589Z,81.82
2018-04-17T03:40:27.164Z,81.84
2018-04-17T03:42:56.756Z,81.72
2018-04-17T03:45:26.732Z,81.65
2018-04-17T03:47:56.328Z,80.79
2018-04-17T03:50:25.927Z,80.32
2018-04-17T03:52:55.509Z,80.41
2018-04-17T03:55:25.102Z,80.27
2018-04-17T03:57:55.084Z,80.61
2018-04-17T04:00:24.654Z,80.34
2018-04-17T04:02:54.460Z,79.78
2018-04-17T04:05:24.050Z,79.89
2018-04-17T04:07:54.018Z,79.92
2018-04-17T04:10:23.600Z,79.68
2018-04-17T04:12:53.188Z,79.10
2018-04-17T04:15:22.786Z,79.85
2018-04-17T04:18:09.413Z,80.01
2018-04-17T04:20:55.936Z,80.15
2018-04-17T04:26:36.579Z,80.16
2018-04-17T04:29:06.558Z,79.90
2018-04-17T04:31:36.200Z,79.98
2018-04-17T04:34:06.543Z,80.36
2018-04-17T04:36:36.153Z,80.41
2018-04-17T04:39:04.842Z,80.56
2018-04-17T04:41:34.458Z,79.95
2018-04-17T04:44:04.043Z,80.07
2018-04-17T04:46:34.021Z,80.32
2018-04-17T04:49:03.607Z,80.51
2018-04-17T04:51:33.181Z,80.41
2018-04-17T04:54:03.168Z,80.59
2018-04-17T04:56:32.760Z,80.74
2018-04-17T04:59:02.346Z,81.20
2018-04-17T05:01:31.939Z,81.45
2018-04-17T05:04:01.565Z,81.52
2018-04-17T05:06:31.171Z,81.40
2018-04-17T05:09:00.769Z,81.44
2018-04-17T05:11:30.373Z,80.95
2018-04-17T05:13:59.733Z,80.82
2018-04-17T05:16:28.992Z,80.93
2018-04-17T05:18:58.501Z,80.68
2018-04-17T05:21:28.013Z,80.80
2018-04-17T05:23:57.551Z,80.45
2018-04-17T05:26:27.235Z,80.12
2018-04-17T05:28:56.736Z,79.41
2018-04-17T05:31:26.250Z,79.44
2018-04-17T05:33:55.770Z,79.98
2018-04-17T05:36:25.288Z,80.25
2018-04-17T05:38:54.824Z,80.38
2018-04-17T05:41:24.344Z,80.58
2018-04-17T05:43:53.858Z,80.46
2018-04-17T05:46:23.361Z,80.21
2018-04-17T05:48:52.932Z,80.23
2018-04-17T05:51:22.832Z,80.13
2018-04-17T05:53:52.922Z,79.88
2018-04-17T05:56:22.438Z,79.78
2018-04-17T05:58:51.718Z,79.68
2018-04-17T06:01:20.999Z,79.84
2018-04-17T06:03:50.518Z,79.62
2018-04-17T06:06:20.039Z,79.59
2018-04-17T06:08:49.552Z,78.72
2018-04-17T06:11:19.054Z,79.49
2018-04-17T06:13:48.606Z,79.72
2018-04-17T06:16:18.118Z,79.78
2018-04-17T06:18:47.647Z,79.47
2018-04-17T06:21:17.156Z,80.68
2018-04-17T06:23:46.704Z,81.08
2018-04-17T06:26:16.225Z,81.45
2018-04-17T06:28:46.128Z,81.79
2018-04-17T06:31:16.050Z,82.98
2018-04-17T06:33:45.943Z,82.75
2018-04-17T06:36:15.448Z,83.04
2018-04-17T06:38:44.958Z,83.29
2018-04-17T06:41:14.467Z,83.24
2018-04-17T06:43:43.755Z,82.50
2018-04-17T06:46:13.260Z,82.58
2018-04-17T06:48:42.765Z,83.15
2018-04-17T06:51:12.288Z,82.56
2018-04-17T06:53:41.997Z,82.47
2018-04-17T06:56:11.499Z,83.44
2018-04-17T06:58:41.010Z,83.33
2018-04-17T07:01:10.514Z,83.57
2018-04-17T07:03:40.019Z,82.58
2018-04-17T07:06:09.528Z,82.39
2018-04-17T07:08:39.024Z,81.80
2018-04-17T07:11:08.527Z,81.10
2018-04-17T07:13:38.064Z,81.32
2018-04-17T07:16:07.992Z,82.10
2018-04-17T07:18:37.495Z,81.58
2018-04-17T07:21:06.668Z,80.62
2018-04-17T07:23:36.603Z,80.92
2018-04-17T07:26:06.286Z,81.24
2018-04-17T07:28:35.803Z,81.26
2018-04-17T07:31:05.720Z,82.19
2018-04-17T07:33:35.619Z,82.56
2018-04-17T07:36:05.176Z,83.05
2018-04-17T07:38:34.688Z,83.09
2018-04-17T07:41:03.970Z,82.82
2018-04-17T07:43:33.475Z,82.26
2018-04-17T07:46:03.010Z,82.39
2018-04-17T07:48:46.505Z,82.18
2018-04-17T07:51:16.419Z,81.19
2018-04-17T07:53:46.324Z,80.18
2018-04-17T07:56:16.021Z,80.54
2018-04-17T07:58:45.518Z,80.87
2018-04-17T08:01:15.033Z,80.91
2018-04-17T08:03:44.541Z,81.11
2018-04-17T08:06:14.044Z,81.97
2018-04-17T08:08:43.545Z,82.24
2018-04-17T08:11:13.051Z,82.39
2018-04-17T08:13:42.564Z,82.36
2018-04-17T08:16:12.070Z,81.56
2018-04-17T08:18:41.576Z,80.23
2018-04-17T08:21:11.084Z,79.22
2018-04-17T08:23:40.604Z,78.97
2018-04-17T08:26:10.498Z,77.65
2018-04-17T08:28:40.014Z,79.23
2018-04-17T08:31:09.924Z,78.65
2018-04-17T08:33:39.635Z,78.18
2018-04-17T08:36:09.144Z,78.16
2018-04-17T08:38:38.645Z,77.83
2018-04-17T08:41:08.141Z,77.23
2018-04-17T08:43:37.841Z,75.41
2018-04-17T08:46:07.336Z,75.78
2018-04-17T08:48:36.850Z,75.19
2018-04-17T08:51:06.556Z,74.94
2018-04-17T08:53:36.070Z,75.85
2018-04-17T08:56:05.575Z,76.88
2018-04-17T08:58:35.086Z,76.25
2018-04-17T09:01:04.612Z,75.66
2018-04-17T09:03:34.526Z,75.66
2018-04-17T09:06:04.420Z,75.28
2018-04-17T09:08:33.922Z,75.19
2018-04-17T09:11:03.451Z,75.24
2018-04-17T09:13:33.348Z,75.19
2018-04-17T09:16:02.862Z,75.48
2018-04-17T09:18:32.794Z,73.93
2018-04-17T09:21:02.705Z,73.69
2018-04-17T09:23:32.609Z,72.23
2018-04-17T09:26:02.131Z,70.57
2018-04-17T09:28:32.083Z,70.09
2018-04-17T09:31:01.586Z,68.88
2018-04-17T09:33:31.099Z,70.00
2018-04-17T09:36:00.619Z,65.96
2018-04-17T09:38:30.307Z,65.18
2018-04-17T09:40:59.824Z,64.38
2018-04-17T09:43:29.325Z,63.62
2018-04-17T09:45:58.832Z,64.23
2018-04-17T09:48:28.342Z,62.72
2018-04-17T09:50:57.854Z,62.52
2018-04-17T09:53:27.132Z,62.72
2018-04-17T09:55:56.628Z,63.26
2018-04-17T09:58:26.134Z,62.89
2018-04-17T10:00:59.534Z,62.29
2018-04-17T10:03:29.046Z,61.68
2018-04-17T10:05:58.562Z,61.06
2018-04-17T10:08:28.073Z,59.11
2018-04-17T10:10:57.634Z,58.93
2018-04-17T10:13:27.552Z,60.42
2018-04-17T10:15:57.462Z,60.14
2018-04-17T10:18:27.358Z,57.66
2018-04-17T10:20:56.884Z,56.21
2018-04-17T10:23:26.899Z,56.31
2018-04-17T10:25:56.822Z,55.32
2018-04-17T10:28:26.726Z,55.18
2018-04-17T10:30:56.675Z,54.39
2018-04-17T10:33:26.170Z,55.48
2018-04-17T10:35:55.674Z,52.43
2018-04-17T10:38:25.169Z,54.22
2018-04-17T10:40:55.085Z,53.03
2018-04-17T10:43:25.016Z,53.87
2018-04-17T10:45:54.525Z,51.65
2018-04-17T10:48:24.027Z,50.52
2018-04-17T10:50:53.727Z,49.45
2018-04-17T10:53:23.631Z,49.47
2018-04-17T10:55:53.517Z,49.27
2018-04-17T10:58:23.006Z,48.19
2018-04-17T11:00:52.520Z,48.10
2018-04-17T11:03:22.045Z,50.32
2018-04-17T11:05:51.736Z,49.15
2018-04-17T11:08:21.477Z,47.01
2018-04-17T11:10:51.026Z,47.58
2018-04-17T11:13:20.531Z,46.08
2018-04-17T11:15:50.056Z,47.28
2018-04-17T11:18:19.556Z,47.85
2018-04-17T11:20:49.057Z,48.68
2018-04-17T11:23:18.556Z,46.27
2018-04-17T11:25:48.054Z,46.95
2018-04-17T11:28:17.562Z,47.01
2018-04-17T11:30:47.066Z,44.39
2018-04-17T11:33:16.579Z,44.38
2018-04-17T11:35:46.974Z,42.36
2018-04-17T11:38:16.864Z,43.38
2018-04-17T11:40:46.370Z,44.29
2018-04-17T11:43:15.641Z,42.62
2018-04-17T11:45:45.145Z,42.44
2018-04-17T11:48:14.628Z,41.27
2018-04-17T11:50:44.157Z,40.53
2018-04-17T11:53:13.648Z,41.14
2018-04-17T11:55:43.146Z,41.36
2018-04-17T11:58:12.633Z,39.06
2018-04-17T12:00:42.138Z,38.59
2018-04-17T12:03:12.052Z,39.86
2018-04-17T12:05:42.111Z,38.14
2018-04-17T12:08:11.600Z,38.33
2018-04-17T12:10:40.867Z,38.82
2018-04-17T12:13:10.535Z,39.84
2018-04-17T12:15:40.073Z,37.00
2018-04-17T12:18:09.574Z,37.91
2018-04-17T12:20:39.173Z,35.67
2018-04-17T12:23:09.224Z,36.04
2018-04-17T12:25:38.726Z,36.79
2018-04-17T12:28:08.795Z,33.34
2018-04-17T12:30:39.237Z,36.05
2018-04-17T12:33:08.729Z,35.57
2018-04-17T12:35:39.213Z,35.49
2018-04-17T12:38:09.261Z,34.64
2018-04-17T12:40:39.324Z,35.04
2018-04-17T12:43:09.387Z,35.13
2018-04-17T12:45:39.483Z,34.27
2018-04-17T12:48:09.538Z,35.97
2018-04-17T12:50:39.588Z,35.08
2018-04-17T12:53:09.642Z,33.46
2018-04-17T12:55:39.704Z,32.39
2018-04-17T12:58:10.338Z,33.08
2018-04-17T13:00:40.800Z,31.75
2018-04-17T13:03:11.058Z,33.23
2018-04-17T13:05:41.115Z,32.95
2018-04-17T13:08:11.174Z,32.45
2018-04-17T13:10:41.232Z,32.18
2018-04-17T13:13:11.278Z,33.09
2018-04-17T13:15:41.385Z,32.34
2018-04-17T13:18:11.600Z,32.01
2018-04-17T13:20:42.251Z,34.62
2018-04-17T13:23:12.698Z,31.38
2018-04-17T13:25:42.765Z,31.23
2018-04-17T13:28:12.811Z,31.67
2018-04-17T13:30:43.254Z,31.73
2018-04-17T13:33:13.289Z,29.70
2018-04-17T13:35:43.343Z,30.82
2018-04-17T13:38:13.409Z,29.50
2018-04-17T13:40:43.457Z,29.78
2018-04-17T13:43:13.514Z,30.39
2018-04-17T13:45:43.561Z,28.00
2018-04-17T13:48:13.609Z,29.50
2018-04-17T13:50:43.663Z,31.17
2018-04-17T13:53:13.719Z,30.92
2018-04-17T13:55:43.783Z,30.17
2018-04-17T13:58:13.825Z,30.52
2018-04-17T14:00:43.874Z,28.07
2018-04-17T14:03:13.928Z,29.39
2018-04-17T14:05:43.991Z,30.13
2018-04-17T14:08:14.438Z,30.69
2018-04-17T14:10:44.724Z,29.08
2018-04-17T14:13:14.781Z,28.17
2018-04-17T14:15:45.474Z,29.68
2018-04-17T14:18:15.513Z,29.24
2018-04-17T14:20:46.065Z,29.71
2018-04-17T14:23:16.139Z,30.39
2018-04-17T14:25:46.209Z,29.81
2018-04-17T14:28:16.270Z,28.38
2018-04-17T14:30:46.314Z,31.43
2018-04-17T14:33:16.781Z,30.96
2018-04-17T14:35:46.529Z,29.64
2018-04-17T14:38:16.574Z,31.37
2018-04-17T14:40:47.034Z,31.47
2018-04-17T14:43:17.668Z,31.32
2018-04-17T14:45:47.745Z,30.01
2018-04-17T14:48:18.193Z,30.79
2018-04-17T14:50:48.007Z,29.42
2018-04-17T14:53:18.045Z,30.21
2018-04-17T14:55:48.119Z,30.86
2018-04-17T14:58:18.559Z,31.30
2018-04-17T15:00:49.005Z,30.46
2018-04-17T15:03:19.069Z,32.00
2018-04-17T15:05:49.163Z,29.84
2018-04-17T15:08:19.231Z,29.65
2018-04-17T15:10:49.312Z,28.03
2018-04-17T15:13:19.364Z,28.66
2018-04-17T15:15:49.427Z,29.00
2018-04-17T15:18:19.485Z,28.64
2018-04-17T15:20:49.551Z,29.68
2018-04-17T15:23:19.798Z,28.80
2018-04-17T15:25:49.867Z,28.01
2018-04-17T15:28:20.317Z,29.63
2018-04-17T15:30:50.373Z,30.14
2018-04-17T15:33:20.432Z,28.88
2018-04-17T15:35:50.879Z,30.68
2018-04-17T15:38:20.981Z,29.38
2018-04-17T15:40:51.197Z,31.08
2018-04-17T15:43:21.251Z,30.65
2018-04-17T15:45:51.331Z,30.39
2018-04-17T15:48:21.072Z,30.17
2018-04-17T15:50:51.357Z,30.10
2018-04-17T15:53:21.169Z,30.22
2018-04-17T15:55:51.279Z,29.26
2018-04-17T15:58:21.332Z,28.73
2018-04-17T16:00:51.791Z,29.29
2018-04-17T16:03:21.879Z,30.08
2018-04-17T16:05:52.125Z,30.36
2018-04-17T16:08:22.191Z,30.88
2018-04-17T16:10:52.263Z,29.74
2018-04-17T16:13:22.332Z,30.42
2018-04-17T16:15:52.389Z,30.93
2018-04-17T16:18:22.451Z,30.79
2018-04-17T16:20:52.508Z,30.43
2018-04-17T16:23:22.885Z,30.92
2018-04-17T16:25:52.942Z,30.40
2018-04-17T16:28:23.011Z,30.13
2018-04-17T16:30:53.078Z,30.92
2018-04-17T16:33:23.157Z,30.94
2018-04-17T16:35:53.219Z,32.56
2018-04-17T16:38:23.280Z,32.87
2018-04-17T16:40:53.124Z,33.67
2018-04-17T16:43:23.178Z,33.43
2018-04-17T16:45:52.678Z,33.81
2018-04-17T16:48:22.744Z,33.74
2018-04-17T16:50:52.808Z,32.82
2018-04-17T16:53:22.880Z,32.32
2018-04-17T16:55:52.945Z,32.54
2018-04-17T16:58:23.024Z,32.42
2018-04-17T17:00:52.912Z,32.82
2018-04-17T17:03:22.973Z,31.39
2018-04-17T17:05:53.029Z,31.80
2018-04-17T17:08:22.530Z,31.49
2018-04-17T17:10:51.802Z,31.67
2018-04-17T17:13:21.856Z,30.93
2018-04-17T17:15:51.383Z,31.75
2018-04-17T17:18:20.887Z,32.17
2018-04-17T17:20:50.396Z,32.43
2018-04-17T17:23:19.895Z,32.42
2018-04-17T17:25:49.405Z,32.49
2018-04-17T17:28:18.920Z,32.83
2018-04-17T17:30:49.004Z,33.28
2018-04-17T17:33:19.476Z,33.66
2018-04-17T17:35:49.390Z,33.73
2018-04-17T17:38:18.945Z,34.45
2018-04-17T17:40:48.623Z,34.37
2018-04-17T17:43:18.294Z,34.78
2018-04-17T17:45:47.782Z,34.49
2018-04-17T17:48:17.277Z,34.49
2018-04-17T17:50:46.778Z,34.76
2018-04-17T17:53:16.270Z,34.96
2018-04-17T17:55:45.792Z,34.90
2018-04-17T17:58:15.298Z,35.33
2018-04-17T18:00:44.564Z,35.85
2018-04-17T18:03:14.468Z,36.37
2018-04-17T18:05:44.174Z,36.25
2018-04-17T18:08:13.670Z,37.13
2018-04-17T18:10:43.171Z,37.13
2018-04-17T18:13:12.712Z,37.58
2018-04-17T18:15:42.376Z,37.81
2018-04-17T18:18:11.661Z,37.73
2018-04-17T18:20:41.176Z,37.89
2018-04-17T18:23:10.678Z,38.53
2018-04-17T18:25:40.177Z,38.96
2018-04-17T18:28:09.702Z,39.37
2018-04-17T18:30:39.014Z,39.52
2018-04-17T18:33:08.516Z,40.40
2018-04-17T18:35:38.011Z,40.17
2018-04-17T18:38:07.293Z,40.08
2018-04-17T18:40:36.811Z,39.69
2018-04-17T18:43:06.318Z,40.04
2018-04-17T18:45:35.829Z,40.20
2018-04-17T18:48:05.333Z,40.52
2018-04-17T18:50:34.842Z,40.95
2018-04-17T18:53:04.352Z,39.96
2018-04-17T18:55:33.853Z,40.19
2018-04-17T18:58:03.355Z,40.68
2018-04-17T19:00:32.851Z,41.04
2018-04-17T19:03:02.351Z,40.75
2018-04-17T19:05:31.853Z,40.93
2018-04-17T19:08:01.365Z,41.38
2018-04-17T19:10:30.653Z,40.79
2018-04-17T19:13:00.187Z,40.51
2018-04-17T19:15:29.700Z,40.75
2018-04-17T19:17:59.200Z,41.50
2018-04-17T19:20:28.698Z,42.32
2018-04-17T19:22:58.198Z,42.26
2018-04-17T19:25:27.717Z,41.86
2018-04-17T19:27:57.231Z,41.27
2018-04-17T19:30:26.520Z,41.10
2018-04-17T19:32:55.837Z,41.35
2018-04-17T19:35:25.506Z,41.42
2018-04-17T19:37:55.029Z,41.57
2018-04-17T19:40:24.598Z,41.28
2018-04-17T19:42:53.914Z,41.67
2018-04-17T19:45:23.517Z,41.72
2018-04-17T19:47:53.173Z,41.85
2018-04-17T19:50:22.670Z,41.73
2018-04-17T19:52:52.209Z,41.80
2018-04-17T19:55:22.107Z,42.00
2018-04-17T19:57:51.599Z,42.16
2018-04-17T20:00:21.107Z,42.46
2018-04-17T20:02:50.620Z,42.71
2018-04-17T20:05:20.172Z,42.90
2018-04-17T20:07:49.671Z,42.92
2018-04-17T20:10:19.174Z,43.14
2018-04-17T20:12:48.692Z,43.47
2018-04-17T20:15:18.204Z,43.89
2018-04-17T20:17:47.711Z,43.66
2018-04-17T20:20:17.245Z,43.35
2018-04-17T20:22:46.739Z,43.43
2018-04-17T20:25:16.249Z,43.52
2018-04-17T20:27:45.762Z,43.41
2018-04-17T20:30:15.275Z,43.71
2018-04-17T20:32:45.451Z,44.05
2018-04-17T20:35:14.963Z,44.33
2018-04-17T20:37:44.457Z,44.31
2018-04-17T20:40:13.747Z,43.92
2018-04-17T20:42:43.255Z,44.17
2018-04-17T20:45:12.521Z,43.65
2018-04-17T20:47:42.013Z,43.72
2018-04-17T20:50:11.315Z,43.73
2018-04-17T20:52:40.597Z,44.24
2018-04-17T20:55:09.877Z,44.87
2018-04-17T20:57:39.150Z,44.42
2018-04-17T21:00:09.075Z,44.00
2018-04-17T21:02:38.575Z,43.94
2018-04-17T21:05:08.465Z,44.27
2018-04-17T21:07:37.994Z,44.63
2018-04-17T21:10:07.554Z,44.88
2018-04-17T21:12:36.821Z,44.69
2018-04-17T21:15:06.339Z,44.82
2018-04-17T21:17:35.832Z,45.52
2018-04-17T21:20:05.355Z,47.09
2018-04-17T21:22:34.623Z,46.10
2018-04-17T21:25:04.283Z,45.81
2018-04-17T21:27:33.795Z,45.76
2018-04-17T21:30:03.303Z,45.66
2018-04-17T21:32:32.803Z,45.87
2018-04-17T21:35:02.312Z,45.91
2018-04-17T21:37:31.825Z,46.42
2018-04-17T21:40:01.082Z,46.33
2018-04-17T21:42:30.583Z,46.40
2018-04-17T21:45:00.301Z,46.76
2018-04-17T21:47:29.811Z,46.87
2018-04-17T21:49:59.303Z,46.77
2018-04-17T21:52:28.795Z,46.75
2018-04-17T21:54:58.316Z,47.04
2018-04-17T21:57:27.847Z,47.46
2018-04-17T21:59:57.547Z,47.84
2018-04-17T22:02:27.071Z,48.65
2018-04-17T22:04:56.573Z,48.74
2018-04-17T22:07:26.069Z,48.81
2018-04-17T22:09:55.586Z,49.06
2018-04-17T22:12:25.118Z,49.02
2018-04-17T22:14:54.621Z,49.13
2018-04-17T22:17:24.136Z,49.07
2018-04-17T22:19:53.416Z,49.50
2018-04-17T22:22:22.685Z,49.76
2018-04-17T22:24:51.951Z,49.66
2018-04-17T22:27:21.877Z,49.78
2018-04-17T22:29:51.382Z,49.86
2018-04-17T22:32:20.569Z,50.01
2018-04-17T22:34:50.461Z,50.08
2018-04-17T22:37:19.745Z,50.08
2018-04-17T22:39:49.051Z,50.14
2018-04-17T22:42:18.333Z,50.52
2018-04-17T22:44:47.653Z,50.58
2018-04-17T22:47:16.963Z,50.84
2018-04-17T22:49:46.234Z,51.37
2018-04-17T22:52:15.517Z,52.13
2018-04-17T22:54:45.100Z,52.01
2018-04-17T22:57:14.813Z,52.32
2018-04-17T22:59:44.108Z,52.45
2018-04-17T23:02:14.030Z,52.94
2018-04-17T23:04:43.948Z,53.19
2018-04-17T23:07:13.834Z,53.17
2018-04-17T23:09:43.353Z,53.04
2018-04-17T23:12:13.570Z,52.87
2018-04-17T23:14:43.486Z,53.02
2018-04-17T23:17:13.221Z,52.58
2018-04-17T23:19:42.731Z,53.50
2018-04-17T23:22:12.124Z,53.73
2018-04-17T23:24:42.047Z,54.16
2018-04-17T23:27:11.559Z,54.41
2018-04-17T23:29:41.094Z,54.57
2018-04-17T23:32:10.630Z,54.91
2018-04-17T23:34:40.560Z,54.95
2018-04-17T23:37:10.496Z,55.34
2018-04-17T23:39:39.331Z,56.53
2018-04-17T23:42:08.845Z,56.58
2018-04-17T23:44:38.395Z,55.85
2018-04-17T23:47:08.340Z,55.59
2018-04-17T23:49:38.097Z,55.99
2018-04-17T23:52:07.713Z,56.15
2018-04-17T23:54:37.629Z,56.35
2018-04-17T23:57:07.573Z,56.75
2018-04-17T23:59:37.109Z,57.16
